sensor_id;sensor_type;location;lat;lon;timestamp;pressure;altitude;pressure_sealevel;temperature;humidity
69239;BME280;56349;51.816;-0.026;2023-05-01T00:01:11;101186.92;;;22.32;33.88
69239;BME280;56349;51.816;-0.026;2023-05-01T00:03:37;101187.22;;;22.51;33.93
69239;BME280;56349;51.816;-0.026;2023-05-01T00:06:04;101184.82;;;22.49;33.97
69239;BME280;56349;51.816;-0.026;2023-05-01T00:08:29;101184.59;;;22.47;33.99
69239;BME280;56349;51.816;-0.026;2023-05-01T00:10:55;101184.43;;;22.21;34.02
69239;BME280;56349;51.816;-0.026;2023-05-01T00:13:21;101182.83;;;22.17;34.07
69239;BME280;56349;51.816;-0.026;2023-05-01T00:15:48;101182.44;;;22.37;34.11
69239;BME280;56349;51.816;-0.026;2023-05-01T00:18:12;101178.62;;;22.32;34.16
69239;BME280;56349;51.816;-0.026;2023-05-01T00:20:38;101178.12;;;22.28;34.22
69239;BME280;56349;51.816;-0.026;2023-05-01T00:23:04;101178.58;;;22.24;34.27
69239;BME280;56349;51.816;-0.026;2023-05-01T00:25:30;101177.58;;;22.23;34.29
69239;BME280;56349;51.816;-0.026;2023-05-01T00:27:56;101177.04;;;21.98;34.31
69239;BME280;56349;51.816;-0.026;2023-05-01T00:30:22;101174.55;;;22.38;34.36
69239;BME280;56349;51.816;-0.026;2023-05-01T00:32:48;101171.90;;;22.13;34.40
69239;BME280;56349;51.816;-0.026;2023-05-01T00:35:14;101168.84;;;22.10;34.44
69239;BME280;56349;51.816;-0.026;2023-05-01T00:37:40;101164.71;;;22.28;34.49
69239;BME280;56349;51.816;-0.026;2023-05-01T00:40:07;101158.96;;;22.04;34.53
69239;BME280;56349;51.816;-0.026;2023-05-01T00:42:36;101157.36;;;22.04;34.53
69239;BME280;56349;51.816;-0.026;2023-05-01T00:44:58;101154.70;;;22.04;34.54
69239;BME280;56349;51.816;-0.026;2023-05-01T00:47:24;101152.51;;;22.04;34.55
69239;BME280;56349;51.816;-0.026;2023-05-01T00:49:50;101149.22;;;22.02;34.59
69239;BME280;56349;51.816;-0.026;2023-05-01T00:52:16;101146.84;;;21.99;34.63
69239;BME280;56349;51.816;-0.026;2023-05-01T00:54:42;101146.31;;;21.98;34.64
69239;BME280;56349;51.816;-0.026;2023-05-01T00:57:07;101144.10;;;22.22;34.63
69239;BME280;56349;51.816;-0.026;2023-05-01T00:59:33;101138.78;;;22.00;34.62
69239;BME280;56349;51.816;-0.026;2023-05-01T01:01:59;101135.39;;;22.19;34.66
69239;BME280;56349;51.816;-0.026;2023-05-01T01:04:25;101129.99;;;21.94;34.69
69239;BME280;56349;51.816;-0.026;2023-05-01T01:06:55;101127.32;;;21.92;34.72
69239;BME280;56349;51.816;-0.026;2023-05-01T01:09:25;101125.86;;;21.91;34.74
69239;BME280;56349;51.816;-0.026;2023-05-01T01:11:48;101122.31;;;22.11;34.75
69239;BME280;56349;51.816;-0.026;2023-05-01T01:14:10;101118.75;;;22.10;34.77
69239;BME280;56349;51.816;-0.026;2023-05-01T01:16:40;101120.30;;;21.86;34.80
69239;BME280;56349;51.816;-0.026;2023-05-01T01:19:05;101117.64;;;21.61;34.84
69239;BME280;56349;51.816;-0.026;2023-05-01T01:21:29;101115.37;;;21.82;34.86
69239;BME280;56349;51.816;-0.026;2023-05-01T01:24:02;101110.37;;;21.81;34.87
69239;BME280;56349;51.816;-0.026;2023-05-01T01:26:26;101106.19;;;21.78;34.91
69239;BME280;56349;51.816;-0.026;2023-05-01T01:31:13;101096.75;;;21.74;34.97
69239;BME280;56349;51.816;-0.026;2023-05-01T01:33:45;101093.75;;;21.98;34.94
69239;BME280;56349;51.816;-0.026;2023-05-01T01:36:05;101091.08;;;21.74;34.97
69239;BME280;56349;51.816;-0.026;2023-05-01T01:38:32;101086.60;;;21.73;34.97
69239;BME280;56349;51.816;-0.026;2023-05-01T01:40:56;101081.88;;;21.71;34.99
69239;BME280;56349;51.816;-0.026;2023-05-01T01:43:18;101079.43;;;21.69;35.01
69239;BME280;56349;51.816;-0.026;2023-05-01T01:45:45;101075.87;;;21.91;35.01
69239;BME280;56349;51.816;-0.026;2023-05-01T01:48:11;101071.33;;;21.68;35.03
69239;BME280;56349;51.816;-0.026;2023-05-01T01:50:34;101069.46;;;21.67;35.03
69239;BME280;56349;51.816;-0.026;2023-05-01T01:53:00;101068.63;;;21.88;35.04
69239;BME280;56349;51.816;-0.026;2023-05-01T01:55:28;101069.43;;;21.85;35.08
69239;BME280;56349;51.816;-0.026;2023-05-01T01:57:50;101066.01;;;21.59;35.12
69239;BME280;56349;51.816;-0.026;2023-05-01T02:00:17;101064.02;;;21.09;35.14
69239;BME280;56349;51.816;-0.026;2023-05-01T02:02:42;101060.14;;;21.61;35.11
69239;BME280;56349;51.816;-0.026;2023-05-01T02:05:07;101056.70;;;21.59;35.12
69239;BME280;56349;51.816;-0.026;2023-05-01T02:07:32;101056.21;;;21.82;35.15
69239;BME280;56349;51.816;-0.026;2023-05-01T02:10:00;101051.63;;;21.61;35.12
69239;BME280;56349;51.816;-0.026;2023-05-01T02:12:23;101049.65;;;21.80;35.15
69239;BME280;56349;51.816;-0.026;2023-05-01T02:14:49;101050.98;;;21.55;35.19
69239;BME280;56349;51.816;-0.026;2023-05-01T02:17:14;101052.79;;;21.53;35.20
69239;BME280;56349;51.816;-0.026;2023-05-01T02:19:39;101048.53;;;21.53;35.19
69239;BME280;56349;51.816;-0.026;2023-05-01T02:22:06;101050.85;;;21.53;35.20
69239;BME280;56349;51.816;-0.026;2023-05-01T02:24:31;101042.57;;;21.74;35.22
69239;BME280;56349;51.816;-0.026;2023-05-01T02:27:01;101041.24;;;21.49;35.24
69239;BME280;56349;51.816;-0.026;2023-05-01T02:29:22;101042.55;;;21.46;35.27
69239;BME280;56349;51.816;-0.026;2023-05-01T02:31:48;101040.58;;;21.66;35.31
69239;BME280;56349;51.816;-0.026;2023-05-01T02:34:14;101038.08;;;21.63;35.33
69239;BME280;56349;51.816;-0.026;2023-05-01T02:36:40;101034.95;;;21.40;35.35
69239;BME280;56349;51.816;-0.026;2023-05-01T02:39:06;101035.05;;;21.63;35.35
69239;BME280;56349;51.816;-0.026;2023-05-01T02:41:34;101032.56;;;21.38;35.37
69239;BME280;56349;51.816;-0.026;2023-05-01T02:44:01;101033.13;;;21.60;35.38
69239;BME280;56349;51.816;-0.026;2023-05-01T02:46:24;101032.87;;;21.37;35.40
69239;BME280;56349;51.816;-0.026;2023-05-01T02:48:50;101031.44;;;21.84;35.42
69239;BME280;56349;51.816;-0.026;2023-05-01T02:51:16;101029.75;;;21.56;35.43
69239;BME280;56349;51.816;-0.026;2023-05-01T02:53:40;101028.51;;;21.53;35.45
69239;BME280;56349;51.816;-0.026;2023-05-01T02:56:06;101027.87;;;21.30;35.48
69239;BME280;56349;51.816;-0.026;2023-05-01T02:58:32;101027.75;;;21.51;35.49
69239;BME280;56349;51.816;-0.026;2023-05-01T03:00:57;101025.27;;;21.51;35.50
69239;BME280;56349;51.816;-0.026;2023-05-01T03:03:23;101026.22;;;21.50;35.51
69239;BME280;56349;51.816;-0.026;2023-05-01T03:05:49;101024.66;;;21.26;35.52
69239;BME280;56349;51.816;-0.026;2023-05-01T03:08:15;101025.20;;;21.24;35.55
69239;BME280;56349;51.816;-0.026;2023-05-01T03:10:41;101026.22;;;21.23;35.57
69239;BME280;56349;51.816;-0.026;2023-05-01T03:13:07;101023.63;;;21.73;35.56
69239;BME280;56349;51.816;-0.026;2023-05-01T03:15:33;101021.22;;;21.47;35.55
69239;BME280;56349;51.816;-0.026;2023-05-01T03:17:59;101021.37;;;21.48;35.55
69239;BME280;56349;51.816;-0.026;2023-05-01T03:20:25;101015.94;;;21.49;35.53
69239;BME280;56349;51.816;-0.026;2023-05-01T03:22:50;101013.86;;;21.72;35.56
69239;BME280;56349;51.816;-0.026;2023-05-01T03:25:16;101013.03;;;21.44;35.59
69239;BME280;56349;51.816;-0.026;2023-05-01T03:27:42;101012.71;;;21.43;35.60
69239;BME280;56349;51.816;-0.026;2023-05-01T03:30:09;101013.15;;;21.44;35.63
69239;BME280;56349;51.816;-0.026;2023-05-01T03:32:34;101009.88;;;21.72;35.75
69239;BME280;56349;51.816;-0.026;2023-05-01T03:35:00;101009.68;;;21.31;35.83
69239;BME280;56349;51.816;-0.026;2023-05-01T03:37:27;101007.26;;;21.47;35.77
69239;BME280;56349;51.816;-0.026;2023-05-01T03:39:51;101012.92;;;21.67;35.65
69239;BME280;56349;51.816;-0.026;2023-05-01T03:42:17;101011.79;;;21.94;35.41
69239;BME280;56349;51.816;-0.026;2023-05-01T03:44:43;101010.86;;;22.21;35.13
69239;BME280;56349;51.816;-0.026;2023-05-01T03:47:09;101009.05;;;22.01;34.82
69239;BME280;56349;51.816;-0.026;2023-05-01T03:49:34;101011.70;;;22.52;34.51
69239;BME280;56349;51.816;-0.026;2023-05-01T03:52:01;101015.08;;;22.44;34.22
69239;BME280;56349;51.816;-0.026;2023-05-01T03:54:27;101016.86;;;22.82;33.98
69239;BME280;56349;51.816;-0.026;2023-05-01T03:56:53;101016.24;;;22.62;33.81
69239;BME280;56349;51.816;-0.026;2023-05-01T03:59:19;101017.74;;;22.66;33.67
69239;BME280;56349;51.816;-0.026;2023-05-01T04:01:44;101015.45;;;22.65;33.57
69239;BME280;56349;51.816;-0.026;2023-05-01T04:04:10;101016.25;;;22.88;33.53
69239;BME280;56349;51.816;-0.026;2023-05-01T04:06:36;101016.26;;;22.58;33.50
69239;BME280;56349;51.816;-0.026;2023-05-01T04:09:03;101015.36;;;23.00;33.50
69239;BME280;56349;51.816;-0.026;2023-05-01T04:11:29;101015.30;;;22.46;33.50
69239;BME280;56349;51.816;-0.026;2023-05-01T04:13:55;101016.78;;;22.38;33.53
69239;BME280;56349;51.816;-0.026;2023-05-01T04:16:20;101015.89;;;22.79;33.57
69239;BME280;56349;51.816;-0.026;2023-05-01T04:18:46;101015.61;;;22.22;33.62
69239;BME280;56349;51.816;-0.026;2023-05-01T04:21:12;101011.04;;;22.64;33.65
69239;BME280;56349;51.816;-0.026;2023-05-01T04:23:38;101007.87;;;22.57;33.71
69239;BME280;56349;51.816;-0.026;2023-05-01T04:26:04;101011.52;;;22.28;33.76
69239;BME280;56349;51.816;-0.026;2023-05-01T04:28:30;101017.81;;;22.43;33.83
69239;BME280;56349;51.816;-0.026;2023-05-01T04:30:56;101016.66;;;22.35;33.91
69239;BME280;56349;51.816;-0.026;2023-05-01T04:33:22;101016.17;;;22.26;33.98
69239;BME280;56349;51.816;-0.026;2023-05-01T04:35:48;101017.29;;;22.19;34.04
69239;BME280;56349;51.816;-0.026;2023-05-01T04:38:14;101018.10;;;21.92;34.09
69239;BME280;56349;51.816;-0.026;2023-05-01T04:40:40;101019.19;;;22.08;34.16
69239;BME280;56349;51.816;-0.026;2023-05-01T04:43:06;101018.18;;;22.02;34.22
69239;BME280;56349;51.816;-0.026;2023-05-01T04:45:32;101023.10;;;21.96;34.29
69239;BME280;56349;51.816;-0.026;2023-05-01T04:47:58;101023.05;;;21.68;34.35
69239;BME280;56349;51.816;-0.026;2023-05-01T04:50:24;101025.69;;;21.86;34.39
69239;BME280;56349;51.816;-0.026;2023-05-01T04:52:50;101027.08;;;21.82;34.44
69239;BME280;56349;51.816;-0.026;2023-05-01T04:55:16;101028.13;;;21.75;34.50
69239;BME280;56349;51.816;-0.026;2023-05-01T04:57:42;101030.06;;;21.71;34.55
69239;BME280;56349;51.816;-0.026;2023-05-01T05:00:09;101031.62;;;21.69;34.58
69239;BME280;56349;51.816;-0.026;2023-05-01T05:02:34;101034.01;;;21.85;34.65
69239;BME280;56349;51.816;-0.026;2023-05-01T05:05:00;101032.45;;;21.78;34.72
69239;BME280;56349;51.816;-0.026;2023-05-01T05:07:26;101033.91;;;21.52;34.78
69239;BME280;56349;51.816;-0.026;2023-05-01T05:09:52;101034.47;;;21.49;34.83
69239;BME280;56349;51.816;-0.026;2023-05-01T05:12:18;101031.92;;;21.67;34.87
69239;BME280;56349;51.816;-0.026;2023-05-01T05:14:44;101032.25;;;21.63;34.92
69239;BME280;56349;51.816;-0.026;2023-05-01T05:17:10;101034.64;;;21.60;34.96
69239;BME280;56349;51.816;-0.026;2023-05-01T05:19:36;101039.05;;;21.34;35.01
69239;BME280;56349;51.816;-0.026;2023-05-01T05:22:02;101042.11;;;21.53;35.04
69239;BME280;56349;51.816;-0.026;2023-05-01T05:24:27;101045.27;;;21.51;35.08
69239;BME280;56349;51.816;-0.026;2023-05-01T05:26:53;101049.03;;;21.27;35.10
69239;BME280;56349;51.816;-0.026;2023-05-01T05:29:19;101050.44;;;21.23;35.16
69239;BME280;56349;51.816;-0.026;2023-05-01T05:31:46;101052.16;;;21.41;35.21
69239;BME280;56349;51.816;-0.026;2023-05-01T05:34:11;101052.01;;;21.39;35.25
69239;BME280;56349;51.816;-0.026;2023-05-01T05:36:36;101050.44;;;21.14;35.28
69239;BME280;56349;51.816;-0.026;2023-05-01T05:39:02;101048.09;;;21.38;35.30
69239;BME280;56349;51.816;-0.026;2023-05-01T05:41:28;101051.03;;;21.36;35.43
69239;BME280;56349;51.816;-0.026;2023-05-01T05:43:54;101051.47;;;21.37;35.64
69239;BME280;56349;51.816;-0.026;2023-05-01T05:46:20;101052.63;;;21.17;35.88
69239;BME280;56349;51.816;-0.026;2023-05-01T05:48:45;101050.59;;;21.20;36.09
69239;BME280;56349;51.816;-0.026;2023-05-01T05:51:11;101053.33;;;21.50;36.23
69239;BME280;56349;51.816;-0.026;2023-05-01T05:53:37;101055.35;;;21.94;36.53
69239;BME280;56349;51.816;-0.026;2023-05-01T05:56:04;101057.84;;;21.70;36.93
69239;BME280;56349;51.816;-0.026;2023-05-01T05:58:29;101057.29;;;22.03;36.77
69239;BME280;56349;51.816;-0.026;2023-05-01T06:00:54;101055.11;;;22.36;36.64
69239;BME280;56349;51.816;-0.026;2023-05-01T06:03:20;101053.02;;;22.45;36.67
69239;BME280;56349;51.816;-0.026;2023-05-01T06:05:46;101046.32;;;22.51;36.50
69239;BME280;56349;51.816;-0.026;2023-05-01T06:08:11;101048.24;;;22.86;36.21
69239;BME280;56349;51.816;-0.026;2023-05-01T06:10:38;101047.40;;;23.22;35.85
69239;BME280;56349;51.816;-0.026;2023-05-01T06:13:02;101045.96;;;23.33;35.45
69239;BME280;56349;51.816;-0.026;2023-05-01T06:15:27;101047.06;;;23.40;35.05
69239;BME280;56349;51.816;-0.026;2023-05-01T06:17:53;101049.42;;;23.50;34.70
69239;BME280;56349;51.816;-0.026;2023-05-01T06:20:19;101044.72;;;24.02;34.33
69239;BME280;56349;51.816;-0.026;2023-05-01T06:22:45;101045.91;;;23.89;33.95
69239;BME280;56349;51.816;-0.026;2023-05-01T06:25:11;101048.15;;;24.43;33.52
69239;BME280;56349;51.816;-0.026;2023-05-01T06:27:36;101046.70;;;24.47;33.19
69239;BME280;56349;51.816;-0.026;2023-05-01T06:30:02;101048.38;;;24.72;32.84
69239;BME280;56349;51.816;-0.026;2023-05-01T06:32:28;101048.41;;;24.97;32.46
69239;BME280;56349;51.816;-0.026;2023-05-01T06:34:54;101051.29;;;24.97;32.16
69239;BME280;56349;51.816;-0.026;2023-05-01T06:37:20;101049.14;;;24.99;31.80
69239;BME280;56349;51.816;-0.026;2023-05-01T06:39:48;101052.16;;;25.40;31.55
69239;BME280;56349;51.816;-0.026;2023-05-01T06:42:12;101048.42;;;25.54;31.27
69239;BME280;56349;51.816;-0.026;2023-05-01T06:44:38;101051.11;;;25.70;31.04
69239;BME280;56349;51.816;-0.026;2023-05-01T06:47:04;101052.03;;;25.66;30.81
69239;BME280;56349;51.816;-0.026;2023-05-01T06:49:30;101050.52;;;25.78;30.58
69239;BME280;56349;51.816;-0.026;2023-05-01T06:51:56;101051.31;;;25.91;30.38
69239;BME280;56349;51.816;-0.026;2023-05-01T06:54:21;101049.25;;;25.56;30.19
69239;BME280;56349;51.816;-0.026;2023-05-01T06:56:47;101045.81;;;25.71;30.00
69239;BME280;56349;51.816;-0.026;2023-05-01T06:59:13;101042.94;;;25.87;29.77
69239;BME280;56349;51.816;-0.026;2023-05-01T07:01:43;101045.19;;;26.03;29.56
69239;BME280;56349;51.816;-0.026;2023-05-01T07:04:05;101045.18;;;26.16;29.32
69239;BME280;56349;51.816;-0.026;2023-05-01T07:06:31;101046.38;;;26.08;29.11
69239;BME280;56349;51.816;-0.026;2023-05-01T07:08:57;101042.93;;;26.47;28.87
69239;BME280;56349;51.816;-0.026;2023-05-01T07:11:23;101037.34;;;26.58;28.67
69239;BME280;56349;51.816;-0.026;2023-05-01T07:13:54;101039.28;;;26.66;28.52
69239;BME280;56349;51.816;-0.026;2023-05-01T07:16:14;101047.48;;;26.76;28.40
69239;BME280;56349;51.816;-0.026;2023-05-01T07:18:48;101049.22;;;26.65;28.35
69239;BME280;56349;51.816;-0.026;2023-05-01T07:21:06;101051.65;;;26.78;28.22
69239;BME280;56349;51.816;-0.026;2023-05-01T07:23:32;101052.98;;;26.83;28.23
69239;BME280;56349;51.816;-0.026;2023-05-01T07:25:58;101054.99;;;27.05;28.06
69239;BME280;56349;51.816;-0.026;2023-05-01T07:28:24;101054.89;;;26.94;27.22
69239;BME280;56349;51.816;-0.026;2023-05-01T07:30:55;101057.39;;;26.54;26.84
69239;BME280;56349;51.816;-0.026;2023-05-01T07:33:15;101059.44;;;26.57;26.55
69239;BME280;56349;51.816;-0.026;2023-05-01T07:35:41;101058.08;;;26.35;26.47
69239;BME280;56349;51.816;-0.026;2023-05-01T07:38:07;101059.64;;;26.27;26.68
69239;BME280;56349;51.816;-0.026;2023-05-01T07:40:33;101057.68;;;26.24;26.81
69239;BME280;56349;51.816;-0.026;2023-05-01T07:43:01;101058.91;;;26.25;26.96
69239;BME280;56349;51.816;-0.026;2023-05-01T07:45:24;101060.35;;;26.51;27.02
69239;BME280;56349;51.816;-0.026;2023-05-01T07:47:50;101058.74;;;26.33;26.97
69239;BME280;56349;51.816;-0.026;2023-05-01T08:12:08;101075.36;;;26.60;26.17
69239;BME280;56349;51.816;-0.026;2023-05-01T08:14:34;101073.46;;;26.65;26.07
69239;BME280;56349;51.816;-0.026;2023-05-01T08:17:00;101071.54;;;26.87;26.09
69239;BME280;56349;51.816;-0.026;2023-05-01T08:19:25;101074.26;;;26.79;26.06
69239;BME280;56349;51.816;-0.026;2023-05-01T08:21:51;101076.78;;;26.65;25.99
69239;BME280;56349;51.816;-0.026;2023-05-01T08:24:17;101074.29;;;26.52;26.00
69239;BME280;56349;51.816;-0.026;2023-05-01T08:26:44;101071.83;;;26.42;26.05
69239;BME280;56349;51.816;-0.026;2023-05-01T08:29:08;101073.87;;;26.51;26.10
69239;BME280;56349;51.816;-0.026;2023-05-01T08:31:34;101074.62;;;26.66;26.17
69239;BME280;56349;51.816;-0.026;2023-05-01T08:34:01;101069.58;;;26.58;25.98
69239;BME280;56349;51.816;-0.026;2023-05-01T08:36:25;101068.11;;;26.93;25.92
69239;BME280;56349;51.816;-0.026;2023-05-01T08:38:51;101068.40;;;26.78;26.02
69239;BME280;56349;51.816;-0.026;2023-05-01T08:41:20;101069.47;;;27.05;26.09
69239;BME280;56349;51.816;-0.026;2023-05-01T08:43:43;101070.58;;;26.89;26.15
69239;BME280;56349;51.816;-0.026;2023-05-01T08:46:10;101071.31;;;26.96;26.16
69239;BME280;56349;51.816;-0.026;2023-05-01T08:48:36;101071.28;;;27.02;26.13
69239;BME280;56349;51.816;-0.026;2023-05-01T08:51:01;101070.85;;;27.07;26.12
69239;BME280;56349;51.816;-0.026;2023-05-01T08:53:26;101069.84;;;27.12;26.12
69239;BME280;56349;51.816;-0.026;2023-05-01T08:55:53;101071.30;;;26.90;26.10
69239;BME280;56349;51.816;-0.026;2023-05-01T08:58:18;101073.91;;;26.99;26.07
69239;BME280;56349;51.816;-0.026;2023-05-01T09:00:44;101074.92;;;27.08;26.01
69239;BME280;56349;51.816;-0.026;2023-05-01T09:03:11;101073.50;;;27.15;25.98
69239;BME280;56349;51.816;-0.026;2023-05-01T09:05:34;101075.21;;;27.18;25.98
69239;BME280;56349;51.816;-0.026;2023-05-01T09:08:00;101076.05;;;27.20;25.99
69239;BME280;56349;51.816;-0.026;2023-05-01T09:10:26;101077.87;;;27.42;26.04
69239;BME280;56349;51.816;-0.026;2023-05-01T09:12:56;101079.61;;;27.42;26.05
69239;BME280;56349;51.816;-0.026;2023-05-01T09:15:17;101080.49;;;27.13;26.02
69239;BME280;56349;51.816;-0.026;2023-05-01T09:17:44;101080.22;;;27.35;26.02
69239;BME280;56349;51.816;-0.026;2023-05-01T09:20:10;101082.51;;;27.24;26.06
69239;BME280;56349;51.816;-0.026;2023-05-01T09:22:35;101081.49;;;26.80;26.17
69239;BME280;56349;51.816;-0.026;2023-05-01T09:25:00;101084.14;;;26.87;26.28
69239;BME280;56349;51.816;-0.026;2023-05-01T09:27:26;101090.51;;;26.83;26.43
69239;BME280;56349;51.816;-0.026;2023-05-01T09:29:57;101091.79;;;26.55;26.66
69239;BME280;56349;51.816;-0.026;2023-05-01T09:32:19;101095.26;;;26.27;26.93
69239;BME280;56349;51.816;-0.026;2023-05-01T09:34:43;101095.62;;;26.24;27.23
69239;BME280;56349;51.816;-0.026;2023-05-01T09:37:10;101101.10;;;25.95;27.57
69239;BME280;56349;51.816;-0.026;2023-05-01T09:39:34;101102.14;;;25.90;27.93
69239;BME280;56349;51.816;-0.026;2023-05-01T09:41:59;101104.71;;;25.67;28.13
69239;BME280;56349;51.816;-0.026;2023-05-01T09:44:25;101102.57;;;25.66;28.30
69239;BME280;56349;51.816;-0.026;2023-05-01T09:46:51;101099.65;;;25.37;28.58
69239;BME280;56349;51.816;-0.026;2023-05-01T09:49:17;101104.19;;;25.36;28.85
69239;BME280;56349;51.816;-0.026;2023-05-01T09:51:43;101105.74;;;24.82;29.14
69239;BME280;56349;51.816;-0.026;2023-05-01T09:54:16;101112.86;;;24.84;29.41
69239;BME280;56349;51.816;-0.026;2023-05-01T09:56:45;101111.21;;;24.63;29.67
69239;BME280;56349;51.816;-0.026;2023-05-01T10:01:37;101112.32;;;24.69;30.11
69239;BME280;56349;51.816;-0.026;2023-05-01T10:03:53;101110.61;;;24.51;30.30
69239;BME280;56349;51.816;-0.026;2023-05-01T10:06:25;101117.67;;;24.35;30.49
69239;BME280;56349;51.816;-0.026;2023-05-01T10:08:44;101115.93;;;24.15;30.73
69239;BME280;56349;51.816;-0.026;2023-05-01T10:11:09;101114.94;;;23.77;30.94
69239;BME280;56349;51.816;-0.026;2023-05-01T10:13:35;101117.77;;;23.87;31.13
69239;BME280;56349;51.816;-0.026;2023-05-01T10:16:01;101119.48;;;24.01;31.27
69239;BME280;56349;51.816;-0.026;2023-05-01T10:18:28;101118.31;;;23.86;31.48
69239;BME280;56349;51.816;-0.026;2023-05-01T10:20:53;101118.73;;;23.74;31.60
69239;BME280;56349;51.816;-0.026;2023-05-01T10:23:19;101120.60;;;23.63;31.76
69239;BME280;56349;51.816;-0.026;2023-05-01T10:25:46;101122.11;;;23.74;31.87
69239;BME280;56349;51.816;-0.026;2023-05-01T10:28:11;101118.13;;;23.15;32.00
69239;BME280;56349;51.816;-0.026;2023-05-01T10:30:37;101118.46;;;23.34;32.12
69239;BME280;56349;51.816;-0.026;2023-05-01T10:33:02;101119.17;;;23.48;32.26
69239;BME280;56349;51.816;-0.026;2023-05-01T10:35:31;101119.75;;;23.41;32.36
69239;BME280;56349;51.816;-0.026;2023-05-01T10:37:59;101118.94;;;23.36;32.45
69239;BME280;56349;51.816;-0.026;2023-05-01T10:47:43;101122.37;;;23.03;32.25
69239;BME280;56349;51.816;-0.026;2023-05-01T10:50:03;101125.93;;;22.89;31.84
69239;BME280;56349;51.816;-0.026;2023-05-01T10:52:26;101131.77;;;22.80;32.04
69239;BME280;56349;51.816;-0.026;2023-05-01T10:54:52;101131.06;;;22.96;32.15
69239;BME280;56349;51.816;-0.026;2023-05-01T11:11:50;101125.49;;;22.82;33.50
69239;BME280;56349;51.816;-0.026;2023-05-01T11:14:16;101121.19;;;22.82;33.59
69239;BME280;56349;51.816;-0.026;2023-05-01T11:16:44;101119.92;;;22.55;33.70
69239;BME280;56349;51.816;-0.026;2023-05-01T11:19:08;101114.58;;;22.83;33.77
69239;BME280;56349;51.816;-0.026;2023-05-01T11:21:33;101110.28;;;22.55;33.84
69239;BME280;56349;51.816;-0.026;2023-05-01T11:23:59;101112.74;;;22.80;33.96
69239;BME280;56349;51.816;-0.026;2023-05-01T11:26:23;101114.00;;;22.52;34.14
69239;BME280;56349;51.816;-0.026;2023-05-01T11:28:52;101111.71;;;22.53;34.42
69239;BME280;56349;51.816;-0.026;2023-05-01T11:31:16;101112.55;;;23.11;34.54
69239;BME280;56349;51.816;-0.026;2023-05-01T11:33:40;101105.27;;;22.83;34.64
69239;BME280;56349;51.816;-0.026;2023-05-01T11:36:06;101107.22;;;23.05;34.72
69239;BME280;56349;51.816;-0.026;2023-05-01T11:38:32;101106.09;;;23.29;34.76
69239;BME280;56349;51.816;-0.026;2023-05-01T11:41:00;101107.71;;;23.35;34.71
69239;BME280;56349;51.816;-0.026;2023-05-01T11:43:24;101110.05;;;23.43;34.50
69239;BME280;56349;51.816;-0.026;2023-05-01T11:45:52;101113.36;;;23.80;34.26
69239;BME280;56349;51.816;-0.026;2023-05-01T11:48:16;101114.57;;;24.15;34.00
69239;BME280;56349;51.816;-0.026;2023-05-01T11:50:42;101113.40;;;24.27;33.72
69239;BME280;56349;51.816;-0.026;2023-05-01T11:53:11;101111.25;;;24.40;33.42
69239;BME280;56349;51.816;-0.026;2023-05-01T11:55:34;101111.06;;;24.95;33.13
69239;BME280;56349;51.816;-0.026;2023-05-01T11:57:59;101107.85;;;25.04;32.80
69239;BME280;56349;51.816;-0.026;2023-05-01T12:00:27;101109.78;;;24.83;32.43
69239;BME280;56349;51.816;-0.026;2023-05-01T12:02:56;101111.22;;;25.60;32.14
69239;BME280;56349;51.816;-0.026;2023-05-01T12:05:15;101108.22;;;25.61;31.89
69239;BME280;56349;51.816;-0.026;2023-05-01T12:07:41;101114.13;;;25.86;31.62
69239;BME280;56349;51.816;-0.026;2023-05-01T12:10:07;101112.93;;;25.91;31.29
69239;BME280;56349;51.816;-0.026;2023-05-01T12:12:32;101115.53;;;26.17;31.02
69239;BME280;56349;51.816;-0.026;2023-05-01T12:14:57;101117.01;;;26.14;30.76
69239;BME280;56349;51.816;-0.026;2023-05-01T12:17:23;101119.17;;;26.35;30.54
69239;BME280;56349;51.816;-0.026;2023-05-01T12:19:48;101114.12;;;26.53;30.32
69239;BME280;56349;51.816;-0.026;2023-05-01T12:22:14;101113.00;;;26.44;30.11
69239;BME280;56349;51.816;-0.026;2023-05-01T12:24:47;101113.67;;;26.60;29.94
69239;BME280;56349;51.816;-0.026;2023-05-01T12:27:04;101114.64;;;26.54;29.76
69239;BME280;56349;51.816;-0.026;2023-05-01T12:29:39;101115.26;;;26.92;29.61
69239;BME280;56349;51.816;-0.026;2023-05-01T12:31:56;101114.59;;;27.07;29.43
69239;BME280;56349;51.816;-0.026;2023-05-01T12:34:28;101112.31;;;27.01;29.25
69239;BME280;56349;51.816;-0.026;2023-05-01T12:36:52;101114.93;;;27.14;29.08
69239;BME280;56349;51.816;-0.026;2023-05-01T12:39:12;101113.37;;;27.26;28.94
69239;BME280;56349;51.816;-0.026;2023-05-01T12:41:40;101116.52;;;27.37;28.80
69239;BME280;56349;51.816;-0.026;2023-05-01T12:46:30;101118.26;;;27.27;28.55
69239;BME280;56349;51.816;-0.026;2023-05-01T12:48:55;101120.53;;;27.36;28.41
69239;BME280;56349;51.816;-0.026;2023-05-01T12:51:21;101125.44;;;27.70;28.31
69239;BME280;56349;51.816;-0.026;2023-05-01T12:53:47;101127.77;;;27.76;28.21
69239;BME280;56349;51.816;-0.026;2023-05-01T12:56:20;101130.34;;;27.84;28.15
69239;BME280;56349;51.816;-0.026;2023-05-01T12:58:37;101129.08;;;27.65;28.05
69239;BME280;56349;51.816;-0.026;2023-05-01T13:01:04;101129.52;;;27.71;27.99
69239;BME280;56349;51.816;-0.026;2023-05-01T13:03:29;101131.72;;;27.72;27.75
69239;BME280;56349;51.816;-0.026;2023-05-01T13:05:56;101133.62;;;27.74;27.63
69239;BME280;56349;51.816;-0.026;2023-05-01T13:08:25;101131.62;;;27.79;27.57
69239;BME280;56349;51.816;-0.026;2023-05-01T13:10:46;101131.84;;;27.84;27.48
69239;BME280;56349;51.816;-0.026;2023-05-01T13:13:11;101132.01;;;27.89;27.38
69239;BME280;56349;51.816;-0.026;2023-05-01T13:15:37;101133.51;;;27.92;27.34
69239;BME280;56349;51.816;-0.026;2023-05-01T13:18:04;101133.05;;;27.93;26.91
69239;BME280;56349;51.816;-0.026;2023-05-01T13:20:28;101135.16;;;27.95;27.04
69239;BME280;56349;51.816;-0.026;2023-05-01T13:22:54;101136.68;;;27.99;27.17